Rechercher aéroport 
image banner adimage banner adimage banner ad
image banner ad

L04 - Holtville

Situé à Holtville, United States

ICAO - L04, IATA -

Données fournies par Airmate  

Information générale

Coordonnées: N32°50'42" W115°16'7"
Élévation : 59 feet MSL.
Variation magnétique : 13° East
Voir autres Aéroports à California

Données opérationnelles

Special qualification required
Heure actuelle UTC:
Heure actuelle locale:
METAR: MMML 262254Z 14007KT 10SM SCT060 38/12 A2980 RMK 8/100 ISOL CI
TAF: TAF MMML 261640Z 2618/2718 12006KT P6SM SCT120 BKN220 BECMG 2620/2621 16012KT FM270200 16008KT P6SM BKN220 BECMG 2706/2707 SCT220 FM271200 14005KT 14005KT P6SM SCT220
Voir NOTAMs / SUP AIP / TFR affectant cet aéroport [VIEW]
Fréquences de communication: [VIEW]

Pistes:

Identifiant RWYQFULongueur (ft)Largeur (ft)SurfaceLDA (ft)
086000150CONC
266000150CONC

Coordonnées de l'aéroport

Adresse: Holtville United States

Vue satellite de L04